Tiempo atmosférico en la estación meteorológica de Molina de Segura, Murcia (170 m.)



Fecha
DESCASC
Temp. máxima en grados centígrados (hora)
DESCASC
Temp. mínima en grados centígrados (hora)
DESCASC
Temp. media en grados centígrados
DESCASC
Racha de viento máxima en m/sg (hora)
DESCASC
Velocidad máxima media en intervalos de 10 minutos(hora)
DESCASC
Precipitaciones diarias en mm
DESCASC
Precipitaciones de 00:00 a 06:00 en mm
DESCASC
Precipitaciones de 06:00 a 12:00 en mm
DESCASC
Precipitaciones de 12:00 a 18:00 en mm
DESCASC
Precipitaciones de 18:00 a 24:00 en mm
DESCASC
28-02-2021 15.4 (14:40) 10.7 (00:00) 13 10 (12:50) 6.67 (17:30) 0 0 0 0 0
27-02-2021 17.1 (15:30) 6.8 (07:30) 12 6.39 (13:00) 3.61 (16:50) 0 0 0 0 0
26-02-2021 17.9 (15:20) 11.4 (05:40) 14.6 7.78 (17:20) 5.28 (17:10) 0 0 0 0 0
25-02-2021 16.7 (16:20) 7.2 (00:00) 12 8.61 (17:00) 5.28 (17:00) 0 0 0 0 0
24-02-2021 18.6 (15:20) 7.5 (00:00) 13.1 8.89 (14:40) 5.83 (17:20) 0 0 0 0 0
23-02-2021 18.8 (14:40) 5.6 (00:00) 12.2 8.89 (12:10) 5 (12:40) 0 0 0 0 0
22-02-2021 16.3 (15:10) 8.2 (00:00) 12.2 11.11 (11:10) 8.33 (17:20) 0 0 0 0 0
21-02-2021 17.9 (16:20) 9.2 (00:00) 13.5 8.06 (08:50) 5.28 (08:30) 0 0 0 0 0
20-02-2021 16.7 (15:20) 8.1 (00:00) 12.4 9.44 (16:30) 6.39 (16:30) 0 0 0 0 0
19-02-2021 21.1 (15:20) 4.9 (00:00) 13 6.94 (17:50) 4.17 (17:30) 0 0 0 0 0
18-02-2021 21.3 (15:20) 4.6 (00:00) 12.9 6.67 (18:10) 4.44 (18:10) 0 0 0 0 0
17-02-2021 21.7 (15:00) 7.4 (00:00) 14.6 6.94 (15:50) 4.17 (15:40) 0 0 0 0 0
16-02-2021 18.2 (17:20) 5.2 (00:00) 11.7 5 (12:00) 2.78 (12:00) 0 0 0 0 0
15-02-2021 16.3 (15:20) 8.1 (00:00) 12.2 6.94 (17:40) 4.44 (17:40) 0 0 0 0 0
14-02-2021 18.5 (14:10) 7.2 (00:00) 12.8 8.61 (14:40) 5 (14:40) 0 0 0 0 0
13-02-2021 21.2 (16:00) 10.7 (00:00) 16 11.94 (00:10) 8.89 (00:10) 0 0 0 0 0
12-02-2021 22.2 (14:20) 13.6 (00:00) 17.9 16.11 (13:40) 10.56 (14:00) 0 0 0 0 0
11-02-2021 23.6 (15:20) 10 (00:00) 16.8 6.94 (01:10) 5 (01:10) 0 0 0 0 0
10-02-2021 21.1 (15:00) 10.5 (00:00) 15.8 14.17 (12:10) 8.61 (12:40) 0 0 0 0 0
09-02-2021 16.1 (20:40) 5.4 (00:00) 10.8 8.06 (23:50) 5.83 (22:40) 0 0 0 0 0
08-02-2021 18.7 (15:40) 8.5 (00:00) 13.6 13.33 (12:40) 8.61 (12:40) 0 0 0 0 0
07-02-2021 17.5 (16:20) 9.2 (00:00) 13.3 14.44 (18:30) 9.72 (16:10) 0 0 0 0 0
06-02-2021 20.7 (15:30) 7.6 (00:00) 14.2 9.72 (01:00) 5.83 (01:00) 0 0 0 0 0
05-02-2021 18.2 (14:10) 6.9 (00:00) 12.6 8.06 (14:50) 5.28 (16:00) 0 0 0 0 0
04-02-2021 18.4 (14:00) 7.2 (00:00) 12.8 7.78 (15:00) 5.28 (15:50) 0 0 0 0 0
03-02-2021 20.1 (15:50) 9.3 (00:00) 14.7 7.78 (12:20) 5 (12:10) 0 0 0 0 0

Gráficas

Temp. máximas Temp. mínimas Temp. medias Precipitaciones Rachas de viento máximas Velocidades máximas media en intervalos de 10 minutos

Datos horarios

Fecha y hora oficial Temperatura (ºC) Velocidad del viento (km/h) Dirección del viento Racha (km/h) Dirección de racha Precipitación (mm) Presión (hPa) Tendencia (hPa) Humedad (%)
2021-03-04 23:00:00 10.5 3 Nordeste 5 Nordeste 0 -- -- 88
2021-03-04 22:00:00 10.3 3 Norte 9 Este 0 -- -- 84
2021-03-04 21:00:00 11 5 Este 9 Este 0 -- -- 80
2021-03-04 20:00:00 12.3 6 Este 14 Sudeste 0 -- -- 73
2021-03-04 19:00:00 13.8 10 Sudeste 23 Este 0 -- -- 65
2021-03-04 18:00:00 15.4 14 Sudeste 25 Sudeste 0 -- -- 60
2021-03-04 17:00:00 16.5 14 Sudeste 28 Sudeste 0 -- -- 55
2021-03-04 16:00:00 16.9 18 Sudeste 32 Este 0 -- -- 52
2021-03-04 15:00:00 16.4 11 Sudeste 19 Sudeste 0 -- -- 55
2021-03-04 14:00:00 17.4 5 Sur 12 Sudeste 0 -- -- 52
2021-03-04 13:00:00 15.7 5 Sur 15 Noroeste 0 -- -- 57
2021-03-04 12:00:00 14.9 10 Noroeste 18 Noroeste 0 -- -- 62
2021-03-04 11:00:00 14.9 5 Noroeste 13 Noroeste 0 -- -- 62
2021-03-04 10:00:00 13.4 2 Noroeste 8 Norte 0 -- -- 69
2021-03-04 09:00:00 10.1 4 Noroeste 8 Norte 0 -- -- 84
2021-03-04 08:00:00 9.5 3 Norte 8 Sur 0 -- -- 84
2021-03-04 07:00:00 10.5 8 Norte 13 Norte 0 -- -- 81
2021-03-04 06:00:00 10.2 3 Noroeste 10 Norte 0 -- -- 83
2021-03-04 05:00:00 9.9 7 Norte 10 Norte 0 -- -- 86
2021-03-04 04:00:00 9.2 4 Norte 6 Norte 0 -- -- 89
2021-03-04 03:00:00 8.7 3 Noroeste 6 Norte 0 -- -- 90
2021-03-04 02:00:00 8.8 0 Calma 5 Noroeste 0 -- -- 89
2021-03-04 01:00:00 9.3 0 Calma 6 Noroeste 0 -- -- 89
2021-03-04 00:00:00 9.6 4 Noroeste 8 Norte 0 -- -- 86
2021-03-03 23:00:00 10.4 5 Norte 6 Norte 0 -- -- 86
2021-03-03 22:00:00 11.6 0 Calma 6 Norte 0 -- -- 82
2021-03-03 21:00:00 12.8 0 Calma 12 Este 0 -- -- 80
2021-03-03 20:00:00 13.4 6 Sudeste 15 Este 0 -- -- 76
2021-03-03 19:00:00 14.4 8 Este 21 Este 0 -- -- 71
2021-03-03 18:00:00 15.5 13 Este 23 Este 0 -- -- 64
2021-03-03 17:00:00 16.2 13 Este 22 Este 0 -- -- 64
2021-03-03 16:00:00 16.9 9 Sur 15 Sudeste 0 -- -- 66
2021-03-03 15:00:00 17.7 4 Sudoeste 23 Sudeste 0 -- -- 64
2021-03-03 14:00:00 15.9 11 Sur 19 Sudeste 0 -- -- 71
2021-03-03 13:00:00 16.3 6 Sudoeste 12 Sur 0 -- -- 71
2021-03-03 12:00:00 15.6 4 Sur 9 Sudoeste 0 -- -- 70
2021-03-03 11:00:00 14.4 6 Oeste 11 Oeste 0 -- -- 76
2021-03-03 10:00:00 13 5 Oeste 10 Oeste 0 -- -- 84
2021-03-03 09:00:00 11.3 3 Noroeste 8 Norte 0 -- -- 92
2021-03-03 08:00:00 10.4 4 Norte 9 Norte 0 -- -- 92
2021-03-03 07:00:00 10.8 3 Este 19 Este 0 -- -- 88
2021-03-03 06:00:00 11.2 7 Norte 10 Norte 0 -- -- 86
2021-03-03 05:00:00 11.3 2 Oeste 22 Norte 0 -- -- 86
2021-03-03 04:00:00 11.4 8 Norte 18 Noroeste 0 -- -- 88
2021-03-03 03:00:00 10.9 8 Norte 15 Norte 0 -- -- 92
2021-03-03 02:00:00 11.4 3 Este 9 Nordeste 0 -- -- 92
2021-03-03 01:00:00 11.5 3 Norte 8 Norte 0 -- -- 92
2021-03-03 00:00:00 12.2 3 Norte 12 Oeste 0 -- -- 90
2021-03-02 23:00:00 12.3 5 Oeste 8 Oeste 0 -- -- 89
2021-03-02 22:00:00 13 0 Calma 11 Este 0 -- -- 86
2021-03-02 21:00:00 13.7 6 Sudeste 36 Sudeste 0 -- -- 85
2021-03-02 20:00:00 14.4 2 Sudoeste 6 Norte 0 -- -- 75
2021-03-02 19:00:00 15.5 3 Noroeste 6 Oeste 0 -- -- 70
2021-03-02 18:00:00 16.5 4 Norte 6 Norte 0 -- -- 67
2021-03-02 17:00:00 16.6 2 Este 13 Este 0 -- -- 65
2021-03-02 16:00:00 16.8 9 Este 19 Este 0 -- -- 64
2021-03-02 15:00:00 18.1 4 Sur 8 Sudoeste 0 -- -- 59
2021-03-02 14:00:00 17.8 4 Oeste 12 Noroeste 0 -- -- 61
2021-03-02 13:00:00 16.8 6 Noroeste 13 Noroeste 0 -- -- 64
2021-03-02 12:00:00 15.2 4 Noroeste 10 Noroeste 0 -- -- 69
2021-03-02 11:00:00 13.6 4 Noroeste 10 Oeste 0 -- -- 76
2021-03-02 10:00:00 11.8 3 Noroeste 13 Noroeste 0 -- -- 85
2021-03-02 09:00:00 10.2 7 Noroeste 9 Noroeste 0 -- -- 90
2021-03-02 08:00:00 9.5 8 Noroeste 12 Norte 0 -- -- 89
2021-03-02 07:00:00 8.5 7 Norte 10 Norte 0 -- -- 92
2021-03-02 06:00:00 8.1 6 Norte 9 Noroeste 0 -- -- 91
2021-03-02 05:00:00 8.2 6 Noroeste 9 Norte 0 -- -- 89
2021-03-02 04:00:00 8.5 5 Noroeste 8 Noroeste 0 -- -- 88
2021-03-02 03:00:00 8.9 5 Noroeste 8 Noroeste 0 -- -- 87
2021-03-02 02:00:00 9.7 6 Noroeste 9 Noroeste 0 -- -- 84
2021-03-02 01:00:00 10.2 0 Calma 8 Norte 0 -- -- 81
2021-03-02 00:00:00 11.1 6 Norte 12 Nordeste 0 -- -- 78
2021-03-01 23:00:00 11.7 6 Nordeste 11 Nordeste 0 -- -- 77
2021-03-01 22:00:00 11.7 5 Nordeste 9 Nordeste 0 -- -- 77
2021-03-01 21:00:00 12.4 5 Este 10 Este 0 -- -- 73
2021-03-01 20:00:00 13.1 4 Este 18 Este 0 -- -- 76
2021-03-01 19:00:00 13.8 9 Este 31 Este 0 -- -- 76
2021-03-01 18:00:00 14.5 18 Sudeste 40 Sudeste 0 -- -- 73
2021-03-01 17:00:00 15.4 26 Sudeste 40 Sudeste 0 -- -- 69
2021-03-01 16:00:00 17.2 24 Sudeste 41 Sudeste 0 -- -- 61
2021-03-01 15:00:00 17.3 23 Sudeste 41 Este 0 -- -- 60
2021-03-01 14:00:00 16.6 26 Sudeste 44 Sudeste 0 -- -- 62
2021-03-01 13:00:00 15.7 27 Sudeste 41 Este 0 -- -- 67
2021-03-01 12:00:00 14.3 10 Este 27 Este 0 -- -- 72
2021-03-01 11:00:00 13.5 6 Nordeste 14 Este 0 -- -- 72
2021-03-01 10:00:00 12.6 8 Este 19 Este 0 -- -- 76
2021-03-01 09:00:00 11.8 9 Este 15 Nordeste 0 -- -- 80
2021-03-01 08:00:00 11.1 5 Nordeste 13 Nordeste 0 -- -- 82
2021-03-01 07:00:00 10.5 7 Norte 14 Este 0 -- -- 84
2021-03-01 06:00:00 11.1 11 Este 19 Sudeste 0 -- -- 82
2021-03-01 05:00:00 11.2 5 Este 10 Nordeste 0 -- -- 81
2021-03-01 04:00:00 11.2 5 Este 18 Este 0 -- -- 83
2021-03-01 03:00:00 11.3 10 Este 18 Este 0.4 -- -- 85
2021-03-01 02:00:00 12.1 7 Este 22 Este 0 -- -- 80
2021-03-01 01:00:00 12.3 9 Este 19 Este 0 -- -- 81
2021-03-01 00:00:00 12.1 3 Sudeste 10 Sudeste 0 -- -- 72
2021-02-28 23:00:00 12 6 Este 19 Este 0 -- -- 71
2021-02-28 22:00:00 11.6 12 Este 19 Este 0 -- -- 81
2021-02-28 21:00:00 12.1 11 Sudeste 25 Este 0 -- -- 82
2021-02-28 20:00:00 12.4 14 Este 28 Este 0 -- -- 79
2021-02-28 19:00:00 13 21 Este 34 Sudeste 0 -- -- 77
2021-02-28 18:00:00 13.8 21 Sudeste 35 Este 0 -- -- 70
2021-02-28 17:00:00 14.7 18 Sudeste 32 Sudeste 0 -- -- 68
2021-02-28 16:00:00 15.2 19 Este 34 Sudeste 0 -- -- 66
2021-02-28 15:00:00 15.1 22 Sudeste 36 Este 0 -- -- 61
2021-02-28 14:00:00 14.6 21 Sudeste 32 Este 0 -- -- 60
2021-02-28 13:00:00 14.3 19 Este 36 Sudeste 0 -- -- 66
2021-02-28 12:00:00 14 21 Este 33 Este 0 -- -- 65
2021-02-28 11:00:00 13.4 19 Sudeste 33 Este 0 -- -- 72
2021-02-28 10:00:00 13.2 14 Sudeste 27 Este 0 -- -- 75
2021-02-28 09:00:00 11.9 8 Este 16 Este 0 -- -- 75
2021-02-28 08:00:00 11.3 5 Este 12 Este 0 -- -- 79
2021-02-28 07:00:00 11.3 5 Este 12 Este 0 -- -- 80
2021-02-28 06:00:00 11.2 0 Calma 9 Este 0 -- -- 76
2021-02-28 05:00:00 11.3 6 Este 11 Nordeste 0 -- -- 74
2021-02-28 04:00:00 11.4 8 Este 16 Este 0 -- -- 74
2021-02-28 03:00:00 11.2 4 Este 10 Este 0 -- -- 78
2021-02-28 02:00:00 10.7 3 Nordeste 6 Este 0 -- -- 82
2021-02-28 01:00:00 10.7 0 Calma 5 Sudeste 0 -- -- 82
2021-02-28 00:00:00 10.9 2 Sudeste 9 Este 0 -- -- 81
2021-02-27 23:00:00 10.7 4 Nordeste 10 Este 0 -- -- 83
2021-02-27 22:00:00 10.1 4 Este 10 Este 0 -- -- 87
2021-02-27 21:00:00 10.1 4 Este 10 Este 0 -- -- 84
2021-02-27 20:00:00 11.2 5 Este 11 Sudeste 0 -- -- 76
2021-02-27 19:00:00 12.6 5 Sudeste 15 Sudeste 0 -- -- 68
2021-02-27 18:00:00 14.1 10 Sudeste 20 Este 0 -- -- 61
2021-02-27 17:00:00 15.9 10 Sudeste 22 Sudeste 0 -- -- 55
2021-02-27 16:00:00 16.8 7 Sudeste 22 Sur 0 -- -- 52
2021-02-27 15:00:00 16.8 8 Este 20 Este 0 -- -- 52
2021-02-27 14:00:00 16.3 7 Sudeste 19 Sudeste 0 -- -- 54
2021-02-27 13:00:00 15.8 12 Sudeste 23 Sudeste 0 -- -- 56
2021-02-27 12:00:00 14.2 6 Este 17 Este 0 -- -- 62
2021-02-27 11:00:00 12.8 7 Noroeste 16 Noroeste 0 -- -- 67
2021-02-27 10:00:00 10.5 10 Noroeste 15 Noroeste 0 -- -- 78
2021-02-27 09:00:00 7.7 6 Norte 9 Noroeste 0 -- -- 92
2021-02-27 08:00:00 6.8 0 Calma 3 Norte 0 -- -- 90
2021-02-27 07:00:00 7.2 0 Calma 4 Norte 0 -- -- 86
2021-02-27 06:00:00 8.5 3 Noroeste 8 Norte 0 -- -- 84
2021-02-27 05:00:00 9.5 5 Norte 8 Norte 0 -- -- 83
2021-02-27 04:00:00 10.6 3 Norte 10 Este 0 -- -- 81
2021-02-27 03:00:00 11.2 5 Este 12 Este 0 -- -- 81
2021-02-27 02:00:00 11.4 4 Este 13 Este 0 -- -- 83
2021-02-27 01:00:00 11.8 8 Este 18 Este 0 -- -- 81
2021-02-27 00:00:00 12.1 9 Sudeste 15 Sudeste 0 -- -- 80
2021-02-26 23:00:00 12.2 5 Este 16 Este 0 -- -- 79
2021-02-26 22:00:00 12.4 7 Este 15 Sudeste 0 -- -- 79
2021-02-26 21:00:00 12.5 7 Sudeste 23 Sudeste 0 -- -- 76
2021-02-26 20:00:00 12.9 11 Este 20 Sudeste 0 -- -- 74
2021-02-26 19:00:00 13.4 14 Sudeste 25 Sudeste 0 -- -- 72
2021-02-26 18:00:00 14.2 16 Sudeste 28 Sudeste 0 -- -- 71
2021-02-26 17:00:00 15.8 16 Sudeste 28 Sudeste 0 -- -- 65
2021-02-26 16:00:00 17.1 14 Sudeste 24 Este 0 -- -- 60
2021-02-26 15:00:00 17.4 9 Este 26 Sur 0 -- -- 56
2021-02-26 14:00:00 17.2 12 Sudeste 25 Sudeste 0 -- -- 57
2021-02-26 13:00:00 16.4 15 Sudeste 22 Sudeste 0 -- -- 63
2021-02-26 12:00:00 14.7 11 Sudeste 20 Este 0 -- -- 68
2021-02-26 11:00:00 13.6 11 Este 23 Sudeste 0 -- -- 73
2021-02-26 10:00:00 12.9 12 Sudeste 20 Sudeste 0 -- -- 77
2021-02-26 09:00:00 11.7 3 Nordeste 8 Este 0 -- -- 79
2021-02-26 08:00:00 11.7 4 Este 11 Este 0 -- -- 79
2021-02-26 07:00:00 11.4 4 Norte 9 Nordeste 0 -- -- 81
2021-02-26 06:00:00 11.4 5 Norte 10 Norte 0 -- -- 81
2021-02-26 05:00:00 11.5 5 Nordeste 9 Nordeste 0 -- -- 80
2021-02-26 04:00:00 12.1 5 Nordeste 11 Nordeste 0 -- -- 78
2021-02-26 03:00:00 12.3 9 Este 20 Este 0 -- -- 77
2021-02-26 02:00:00 12.5 10 Este 24 Este 0 -- -- 77
2021-02-26 01:00:00 12.6 12 Este 23 Este 0 -- -- 81
2021-02-26 00:00:00 12.8 11 Este 24 Este 0 -- -- 81
2021-02-25 23:00:00 12.8 15 Este 23 Este 0 -- -- 83
2021-02-25 22:00:00 12.9 14 Sudeste 26 Este 0 -- -- 82
2021-02-25 21:00:00 13.1 15 Este 24 Este 0 -- -- 82
2021-02-25 20:00:00 13.4 13 Sudeste 24 Sudeste 0 -- -- 77
2021-02-25 19:00:00 13.7 16 Sudeste 26 Sudeste 0 -- -- 77
2021-02-25 18:00:00 14.6 16 Sudeste 29 Sudeste 0 -- -- 74
2021-02-25 17:00:00 15.6 19 Este 31 Este 0 -- -- 70
2021-02-25 16:00:00 16.5 16 Sudeste 27 Sudeste 0 -- -- 67
2021-02-25 15:00:00 16.4 17 Sudeste 25 Sudeste 0 -- -- 67
2021-02-25 14:00:00 16.5 13 Sudeste 22 Sudeste 0 -- -- 66
2021-02-25 13:00:00 15.9 9 Sudeste 21 Sudeste 0 -- -- 68
2021-02-25 12:00:00 15 11 Este 22 Este 0 -- -- 73
2021-02-25 11:00:00 14.1 12 Sudeste 24 Este 0 -- -- 79
2021-02-25 10:00:00 12.8 9 Este 15 Sudeste 0 -- -- 86
2021-02-25 09:00:00 11.4 0 Calma 6 Norte 0 -- -- 90
2021-02-25 08:00:00 10.6 4 Norte 6 Norte 0 -- -- 90
2021-02-25 07:00:00 10 3 Nordeste 4 Este 0 -- -- 91
2021-02-25 06:00:00 9.5 0 Calma 2 Oeste 0 -- -- 91
2021-02-25 05:00:00 9.3 0 Calma 5 Norte 0 -- -- 92
2021-02-25 04:00:00 9 3 Norte 5 Norte 0 -- -- 93
2021-02-25 03:00:00 8.3 4 Norte 7 Norte 0 -- -- 95
2021-02-25 02:00:00 7.5 4 Norte 6 Noroeste 0 -- -- 94
2021-02-25 01:00:00 7.2 4 Norte 8 Noroeste 0 -- -- 92
2021-02-25 00:00:00 7.5 4 Noroeste 6 Noroeste 0 -- -- 90
2021-02-24 23:00:00 9 0 Calma 6 Nordeste 0 -- -- 86
2021-02-24 22:00:00 10.5 5 Este 8 Este 0 -- -- 87
2021-02-24 21:00:00 11.2 4 Este 9 Este 0 -- -- 82
2021-02-24 20:00:00 12.4 5 Este 15 Sudeste 0 -- -- 74
2021-02-24 19:00:00 14.2 12 Sudeste 29 Este 0 -- -- 70
2021-02-24 18:00:00 15.5 17 Este 31 Este 0 -- -- 66
2021-02-24 17:00:00 17 20 Sudeste 30 Sudeste 0 -- -- 61
2021-02-24 16:00:00 18.1 16 Sudeste 29 Sudeste 0 -- -- 56
2021-02-24 15:00:00 18.5 19 Sudeste 32 Sudeste 0 -- -- 56
2021-02-24 14:00:00 17.6 13 Este 23 Sudeste 0 -- -- 61
2021-02-24 13:00:00 16.8 12 Sudeste 30 Sudeste 0 -- -- 60
2021-02-24 12:00:00 16 12 Sudeste 21 Sudeste 0 -- -- 66
2021-02-24 11:00:00 14 7 Norte 17 Norte 0 -- -- 69
2021-02-24 10:00:00 11.9 10 Norte 15 Noroeste 0 -- -- 73
2021-02-24 09:00:00 11.2 4 Oeste 11 Norte 0 -- -- 75
2021-02-24 08:00:00 10.9 12 Norte 17 Norte 0 -- -- 73
2021-02-24 07:00:00 10.8 12 Norte 17 Norte 0 -- -- 72
2021-02-24 06:00:00 11 10 Norte 17 Norte 0 -- -- 71
2021-02-24 05:00:00 10.7 9 Norte 14 Norte 0 -- -- 75
2021-02-24 04:00:00 9.8 6 Noroeste 13 Noroeste 0 -- -- 85
2021-02-24 03:00:00 8.5 0 Calma 4 Noroeste 0 -- -- 91
2021-02-24 02:00:00 9.1 4 Noroeste 9 Noroeste 0 -- -- 92
2021-02-24 01:00:00 9.7 8 Noroeste 11 Noroeste 0 -- -- 90
2021-02-24 00:00:00 9.8 4 Noroeste 6 Noroeste 0 -- -- 86
2021-02-23 23:00:00 10.8 3 Noroeste 6 Noroeste 0 -- -- 87
2021-02-23 22:00:00 10.6 0 Calma 5 Noroeste 0 -- -- 84
2021-02-23 21:00:00 11.7 3 Nordeste 6 Este 0 -- -- 82
2021-02-23 20:00:00 13 4 Sudeste 14 Sudeste 0 -- -- 76
2021-02-23 19:00:00 14.5 7 Sudeste 21 Sudeste 0 -- -- 67
2021-02-23 18:00:00 16.6 9 Sudeste 17 Sur 0 -- -- 54
2021-02-23 17:00:00 17 8 Sudeste 17 Este 0 -- -- 52
2021-02-23 16:00:00 18.1 13 Este 26 Sudeste 0 -- -- 48
2021-02-23 15:00:00 18.5 11 Sudeste 24 Sudeste 0 -- -- 46
2021-02-23 14:00:00 18.6 10 Sudeste 27 Sudeste 0 -- -- 45
2021-02-23 13:00:00 17.9 10 Sudeste 32 Sudeste 0 -- -- 48
2021-02-23 12:00:00 16.9 17 Sudeste 28 Sudeste 0 -- -- 48
2021-02-23 11:00:00 15 10 Este 21 Sudeste 0 -- -- 56
2021-02-23 10:00:00 11.9 5 Nordeste 13 Este 0 -- -- 70
2021-02-23 09:00:00 7.3 2 Oeste 4 Oeste 0 -- -- 88
2021-02-23 08:00:00 5.6 3 Noroeste 8 Norte 0 -- -- 84
2021-02-23 07:00:00 6.8 5 Noroeste 9 Norte 0 -- -- 83
2021-02-23 06:00:00 7.8 6 Noroeste 8 Norte 0 -- -- 81
2021-02-23 05:00:00 7.2 5 Noroeste 8 Noroeste 0 -- -- 80
2021-02-23 04:00:00 6.7 5 Noroeste 9 Noroeste 0 -- -- 78
2021-02-23 03:00:00 7.6 5 Norte 9 Norte 0 -- -- 74
2021-02-23 02:00:00 8.8 3 Oeste 9 Norte 0 -- -- 69
2021-02-23 01:00:00 10.1 6 Norte 14 Norte 0 -- -- 66
2021-02-23 00:00:00 10.6 5 Oeste 10 Noroeste 0 -- -- 63
2021-02-22 23:00:00 11 6 Noroeste 17 Noroeste 0 -- -- 62
2021-02-22 22:00:00 11.7 7 Noroeste 25 Noroeste 0 -- -- 59
2021-02-22 21:00:00 12.2 13 Noroeste 22 Noroeste 0 -- -- 57
2021-02-22 20:00:00 11.9 5 Noroeste 15 Noroeste 0 -- -- 56
2021-02-22 19:00:00 12.7 7 Noroeste 19 Noroeste 0 -- -- 53
2021-02-22 18:00:00 14.3 12 Noroeste 40 Norte 0 -- -- 49
2021-02-22 17:00:00 15.8 27 Norte 39 Norte 0 -- -- 44
2021-02-22 16:00:00 15.6 22 Noroeste 39 Noroeste 0 -- -- 44
2021-02-22 15:00:00 16.2 24 Noroeste 40 Noroeste 0 -- -- 42
2021-02-22 14:00:00 15.6 19 Noroeste 36 Noroeste 0 -- -- 43
2021-02-22 13:00:00 15.1 23 Noroeste 39 Noroeste 0 -- -- 44
2021-02-22 12:00:00 13.7 21 Noroeste 40 Noroeste 0 -- -- 46
2021-02-22 11:00:00 13 19 Noroeste 34 Noroeste 0 -- -- 46
2021-02-22 10:00:00 12.8 19 Noroeste 31 Noroeste 0 -- -- 49
2021-02-22 09:00:00 10.9 10 Oeste 25 Oeste 0 -- -- 59
2021-02-22 08:00:00 8.2 8 Oeste 14 Oeste 0 -- -- 71
2021-02-22 07:00:00 8.5 5 Oeste 9 Oeste 0 -- -- 72
2021-02-22 06:00:00 9.9 5 Oeste 14 Oeste 0 -- -- 67
2021-02-22 05:00:00 10.8 11 Oeste 22 Oeste 0 -- -- 64
2021-02-22 04:00:00 10.7 14 Oeste 26 Oeste 0 -- -- 67
2021-02-22 03:00:00 11.1 12 Oeste 33 Noroeste 0 -- -- 72
2021-02-22 02:00:00 11.6 15 Noroeste 26 Noroeste 0 -- -- 72
2021-02-22 01:00:00 11.5 9 Oeste 18 Norte 0 -- -- 74
2021-02-22 00:00:00 12.4 14 Noroeste 27 Noroeste 0 -- -- 71
2021-02-21 23:00:00 12.8 15 Noroeste 22 Noroeste 0 -- -- 71
2021-02-21 22:00:00 13.4 5 Sudoeste 11 Sudoeste 0 -- -- 71
2021-02-21 21:00:00 14.2 4 Sudeste 8 Sudeste 0 -- -- 73
2021-02-21 20:00:00 15.1 4 Sur 10 Sur 0 -- -- 68
2021-02-21 19:00:00 15.9 2 Sur 15 Sudoeste 0 -- -- 66
2021-02-21 18:00:00 17.2 4 Sudoeste 13 Sudeste 0 -- -- 60
2021-02-21 17:00:00 17.7 7 Sudeste 13 Este 0 -- -- 58
2021-02-21 16:00:00 17.2 4 Norte 14 Noroeste 0 -- -- 61
2021-02-21 15:00:00 16.2 11 Norte 21 Norte 0 -- -- 64
2021-02-21 14:00:00 16 11 Noroeste 17 Noroeste 0 -- -- 65
2021-02-21 13:00:00 16 7 Noroeste 23 Norte 0 -- -- 63
2021-02-21 12:00:00 14.2 15 Noroeste 28 Norte 0 -- -- 73
2021-02-21 11:00:00 12.8 10 Noroeste 19 Noroeste 0 -- -- 77
2021-02-21 10:00:00 11.5 4 Oeste 25 Noroeste 0 -- -- 81
2021-02-21 09:00:00 10.7 18 Norte 29 Norte 0 -- -- 84
2021-02-21 08:00:00 10.2 14 Noroeste 24 Norte 0 -- -- 85
2021-02-21 07:00:00 9.9 16 Norte 24 Norte 0 -- -- 85
2021-02-21 06:00:00 9.7 15 Norte 22 Norte 0 -- -- 85
2021-02-21 05:00:00 9.8 14 Norte 20 Norte 0 -- -- 87
2021-02-21 04:00:00 10.1 8 Noroeste 23 Noroeste 0 -- -- 89
2021-02-21 03:00:00 9.9 14 Noroeste 21 Noroeste 0 -- -- 94
2021-02-21 02:00:00 9.3 8 Noroeste 12 Noroeste 0 -- -- 95
2021-02-21 01:00:00 9.6 6 Noroeste 9 Norte 0 -- -- 92
2021-02-21 00:00:00 10.7 0 Calma 4 Norte 0 -- -- 90
2021-02-20 23:00:00 11.4 0 Calma 10 Este 0 -- -- 89
2021-02-20 22:00:00 12.2 9 Sudeste 19 Este 0 -- -- 89
2021-02-20 21:00:00 12.4 9 Este 21 Este 0 -- -- 88
2021-02-20 20:00:00 12.2 13 Este 23 Este 0 -- -- 88
2021-02-20 19:00:00 12.9 14 Sudeste 29 Este 0 -- -- 82
2021-02-20 18:00:00 14 15 Sudeste 31 Este 0 -- -- 74
2021-02-20 17:00:00 15.5 22 Sudeste 34 Sudeste 0 -- -- 69
2021-02-20 16:00:00 16.5 21 Este 31 Este 0 -- -- 63
2021-02-20 15:00:00 16.6 15 Sudeste 23 Este 0 -- -- 63
2021-02-20 14:00:00 15.7 12 Sudeste 21 Sudeste 0 -- -- 68
2021-02-20 13:00:00 14.1 11 Sudeste 22 Sudeste 0 -- -- 75
2021-02-20 12:00:00 12.4 4 Este 12 Nordeste 0 -- -- 83
2021-02-20 11:00:00 10.8 6 Nordeste 14 Este 0 -- -- 90
2021-02-20 10:00:00 9.9 6 Sudeste 11 Este 0 -- -- 95
2021-02-20 09:00:00 9.4 6 Norte 9 Norte 0 -- -- 96
2021-02-20 08:00:00 9.5 2 Nordeste 6 Este 0 -- -- 97
2021-02-20 07:00:00 9.7 0 Calma 6 Sudeste 0 -- -- 97
2021-02-20 06:00:00 9.8 4 Este 10 Este 0 -- -- 97
2021-02-20 05:00:00 10.2 4 Este 11 Este 0 -- -- 98
2021-02-20 04:00:00 10.1 6 Este 12 Este 0 -- -- 98
2021-02-20 03:00:00 9.7 0 Calma 8 Este 0 -- -- 97
2021-02-20 02:00:00 9.5 3 Este 10 Este 0 -- -- 97
2021-02-20 01:00:00 8.5 0 Calma 5 Noroeste 0 -- -- 95
2021-02-20 00:00:00 8.4 2 Norte 5 Noroeste 0 -- -- 92
2021-02-19 23:00:00 9.4 2 Nordeste 6 Norte 0 -- -- 91
2021-02-19 22:00:00 10.7 6 Este 9 Este 0 -- -- 89
2021-02-19 21:00:00 11.9 5 Este 10 Este 0 -- -- 83
2021-02-19 20:00:00 13.6 7 Este 13 Sudeste 0 -- -- 78
2021-02-19 19:00:00 15.8 9 Este 22 Este 0 -- -- 72
2021-02-19 18:00:00 18.4 12 Este 25 Este 0 -- -- 64
2021-02-19 17:00:00 20.4 12 Este 21 Sudeste 0 -- -- 52
2021-02-19 16:00:00 20.7 8 Sudeste 22 Sudeste 0 -- -- 49
2021-02-19 15:00:00 20.5 8 Sudeste 18 Sudeste 0 -- -- 46
2021-02-19 14:00:00 18.5 8 Sudeste 14 Sudeste 0 -- -- 56
2021-02-19 13:00:00 16.1 5 Sudeste 12 Sudeste 0 -- -- 67
2021-02-19 12:00:00 13.6 4 Este 10 Este 0 -- -- 78
2021-02-19 11:00:00 10.6 4 Sudeste 8 Sudeste 0 -- -- 98
2021-02-19 10:00:00 8.6 0 Calma 5 Sur 0 -- -- 100
2021-02-19 09:00:00 6.2 0 Calma 5 Noroeste 0 -- -- 99
2021-02-19 08:00:00 5 4 Noroeste 6 Noroeste 0 -- -- 96
2021-02-19 07:00:00 5.4 3 Noroeste 4 Noroeste 0 -- -- 94
2021-02-19 06:00:00 6.6 3 Nordeste 6 Este 0 -- -- 95
2021-02-19 05:00:00 7.4 3 Nordeste 9 Nordeste 0 -- -- 93
2021-02-19 04:00:00 7.8 5 Nordeste 10 Norte 0 -- -- 94
2021-02-19 03:00:00 7.2 5 Oeste 9 Noroeste 0 -- -- 94
2021-02-19 02:00:00 7.8 5 Oeste 9 Sudoeste 0 -- -- 94
2021-02-19 01:00:00 8.4 4 Oeste 8 Oeste 0 -- -- 95
2021-02-19 00:00:00 8.1 4 Noroeste 8 Noroeste 0 -- -- 92
2021-02-18 23:00:00 8.7 4 Norte 7 Noroeste 0 -- -- 89
2021-02-18 22:00:00 10.2 3 Noroeste 6 Norte 0 -- -- 86
2021-02-18 21:00:00 11.7 3 Nordeste 10 Este 0 -- -- 85
2021-02-18 20:00:00 13.1 6 Este 16 Este 0 -- -- 81
2021-02-18 19:00:00 14.8 10 Este 24 Sudeste 0 -- -- 74
2021-02-18 18:00:00 17.7 14 Este 23 Este 0 -- -- 63
2021-02-18 17:00:00 20.9 7 Sudeste 15 Sudeste 0 -- -- 35
2021-02-18 16:00:00 21.1 9 Sudeste 17 Sudeste 0 -- -- 37
2021-02-18 15:00:00 20.7 6 Sur 18 Sudeste 0 -- -- 38
2021-02-18 14:00:00 19.5 5 Sudeste 13 Sudeste 0 -- -- 42
2021-02-18 13:00:00 18 5 Sur 12 Sudeste 0 -- -- 46
2021-02-18 12:00:00 15.5 4 Nordeste 13 Norte 0 -- -- 52
2021-02-18 11:00:00 13.1 2 Norte 15 Norte 0 -- -- 66
2021-02-18 10:00:00 10.1 11 Norte 15 Norte 0 -- -- 77
2021-02-18 09:00:00 6.4 0 Calma 12 Noroeste 0 -- -- 96
2021-02-18 08:00:00 4.6 0 Calma 8 Noroeste 0 -- -- 94
2021-02-18 07:00:00 5.8 3 Oeste 7 Oeste 0 -- -- 92
2021-02-18 06:00:00 7.7 3 Noroeste 15 Oeste 0 -- -- 92
2021-02-18 05:00:00 9.4 9 Noroeste 15 Oeste 0 -- -- 94
2021-02-18 04:00:00 9.9 3 Nordeste 9 Este 0 -- -- 94
2021-02-18 03:00:00 10.4 4 Sudeste 10 Este 0 -- -- 94
2021-02-18 02:00:00 10.5 2 Nordeste 8 Nordeste 0 -- -- 94
2021-02-18 01:00:00 10.9 3 Sudeste 11 Sudeste 0 -- -- 94
2021-02-18 00:00:00 11 6 Sudeste 12 Sudeste 0 -- -- 94
2021-02-17 23:00:00 10.7 3 Este 8 Este 0 -- -- 93
2021-02-17 22:00:00 10.8 5 Este 10 Este 0 -- -- 88
2021-02-17 21:00:00 11.8 4 Este 10 Sudeste 0 -- -- 79
2021-02-17 20:00:00 13.1 7 Este 16 Este 0 -- -- 72
2021-02-17 19:00:00 15.4 9 Sudeste 21 Este 0 -- -- 66
2021-02-17 18:00:00 17.6 13 Este 24 Este 0 -- -- 58
2021-02-17 17:00:00 19.4 15 Este 23 Este 0 -- -- 50
2021-02-17 16:00:00 20.6 15 Este 25 Este 0 -- -- 46
2021-02-17 15:00:00 21.7 13 Sudeste 21 Sudeste 0 -- -- 40
2021-02-17 14:00:00 20.6 10 Sudeste 23 Este 0 -- -- 42
2021-02-17 13:00:00 19.8 11 Sudeste 24 Sudeste 0 -- -- 41
2021-02-17 12:00:00 18.3 8 Este 19 Norte 0 -- -- 47
2021-02-17 11:00:00 15.4 12 Norte 17 Noroeste 0 -- -- 56
2021-02-17 10:00:00 12.5 8 Norte 13 Norte 0 -- -- 65
2021-02-17 09:00:00 9.5 3 Norte 13 Noroeste 0 -- -- 75
2021-02-17 08:00:00 8.7 9 Noroeste 21 Noroeste 0 -- -- 75
2021-02-17 07:00:00 10 13 Noroeste 19 Noroeste 0 -- -- 72
2021-02-17 06:00:00 9.7 9 Noroeste 19 Noroeste 0 -- -- 73
2021-02-17 05:00:00 9.2 7 Noroeste 13 Noroeste 0 -- -- 77
2021-02-17 04:00:00 8.8 6 Noroeste 16 Oeste 0 -- -- 77
2021-02-17 03:00:00 7.9 8 Noroeste 11 Noroeste 0 -- -- 81
2021-02-17 02:00:00 7.7 6 Noroeste 17 Noroeste 0 -- -- 80
2021-02-17 01:00:00 9.4 9 Noroeste 18 Noroeste 0 -- -- 76
2021-02-17 00:00:00 8 4 Noroeste 8 Oeste 0 -- -- 85
2021-02-16 23:00:00 7.8 4 Noroeste 6 Norte 0 -- -- 82
2021-02-16 22:00:00 8.7 4 Norte 12 Norte 0 -- -- 79
2021-02-16 21:00:00 10.1 5 Norte 10 Este 0 -- -- 74
2021-02-16 20:00:00 11.7 5 Este 8 Este 0 -- -- 67
2021-02-16 19:00:00 14.7 3 Norte 5 Noroeste 0 -- -- 60
2021-02-16 18:00:00 17.5 3 Noroeste 8 Oeste 0 -- -- 49
2021-02-16 17:00:00 18.1 5 Oeste 11 Oeste 0 -- -- 48
2021-02-16 16:00:00 17.9 3 Sudoeste 15 Oeste 0 -- -- 49
2021-02-16 15:00:00 17.1 5 Noroeste 15 Oeste 0 -- -- 52
2021-02-16 14:00:00 15.7 6 Noroeste 14 Noroeste 0 -- -- 55
2021-02-16 13:00:00 14.3 8 Oeste 17 Oeste 0 -- -- 60
2021-02-16 12:00:00 13 10 Oeste 18 Oeste 0 -- -- 65
2021-02-16 11:00:00 11.3 8 Oeste 12 Oeste 0 -- -- 73
2021-02-16 10:00:00 9.8 2 Oeste 6 Oeste 0 -- -- 88
2021-02-16 09:00:00 8.5 0 Calma 6 Oeste 0 -- -- 93
2021-02-16 08:00:00 8.3 2 Oeste 9 Norte 0 -- -- 93
2021-02-16 07:00:00 7.9 4 Noroeste 7 Oeste 0 -- -- 95
2021-02-16 06:00:00 7.2 2 Oeste 5 Norte 0 -- -- 95
2021-02-16 05:00:00 6.6 3 Noroeste 5 Noroeste 0 -- -- 96
2021-02-16 04:00:00 5.7 3 Noroeste 7 Norte 0 -- -- 95
2021-02-16 03:00:00 5.3 4 Noroeste 6 Noroeste 0 -- -- 94
2021-02-16 02:00:00 5.6 2 Norte 4 Este 0 -- -- 91
2021-02-16 01:00:00 6.9 0 Calma 5 Este 0 -- -- 89
2021-02-16 00:00:00 8.1 2 Sudeste 8 Nordeste 0 -- -- 88
2021-02-15 23:00:00 8.8 6 Este 9 Este 0 -- -- 89
2021-02-15 22:00:00 8.7 5 Nordeste 9 Nordeste 0 -- -- 87
2021-02-15 21:00:00 9.4 6 Este 10 Este 0 -- -- 84
2021-02-15 20:00:00 10.9 7 Este 15 Sudeste 0 -- -- 76
2021-02-15 19:00:00 12.8 12 Sudeste 25 Sudeste 0 -- -- 68
2021-02-15 18:00:00 14.6 15 Sudeste 25 Sudeste 0 -- -- 58
2021-02-15 17:00:00 15.6 13 Sudeste 22 Sudeste 0 -- -- 56
2021-02-15 16:00:00 16.1 12 Sudeste 22 Sudeste 0 -- -- 55
2021-02-15 15:00:00 16.2 12 Sudeste 21 Sudeste 0 -- -- 55
2021-02-15 14:00:00 15.4 12 Sudeste 23 Sudeste 0 -- -- 58
2021-02-15 13:00:00 15.2 10 Sudeste 25 Sur 0 -- -- 62
2021-02-15 12:00:00 14.4 6 Sur 16 Sudeste 0 -- -- 66
2021-02-15 11:00:00 13.8 7 Sur 19 Sudeste 0 -- -- 72
2021-02-15 10:00:00 12 2 Sudeste 7 Sudeste 0 -- -- 90
2021-02-15 09:00:00 11.3 3 Este 6 Este 0 -- -- 95
2021-02-15 08:00:00 11.1 3 Este 8 Este 0 -- -- 94
2021-02-15 07:00:00 11.3 5 Sudeste 9 Sudeste 0 -- -- 93
2021-02-15 06:00:00 11.4 0 Calma 6 Este 0 -- -- 93
2021-02-15 05:00:00 11.4 3 Este 5 Este 0 -- -- 93
2021-02-15 04:00:00 11.4 2 Este 7 Nordeste 0 -- -- 92
2021-02-15 03:00:00 11.6 2 Este 5 Este 0 -- -- 92
2021-02-15 02:00:00 11.8 3 Este 6 Este 0 -- -- 92
2021-02-15 01:00:00 11.9 3 Este 6 Sudeste 0 -- -- 91
2021-02-15 00:00:00 11.9 5 Sudeste 11 Sudeste 0 -- -- 91
2021-02-14 23:00:00 11.9 3 Sudeste 8 Sudeste 0 -- -- 92
2021-02-14 22:00:00 11.2 0 Calma 8 Nordeste 0 -- -- 90
2021-02-14 21:00:00 11.5 6 Este 15 Sudeste 0 -- -- 89
2021-02-14 20:00:00 12.3 9 Este 21 Este 0 -- -- 84
2021-02-14 19:00:00 13.4 12 Sudeste 28 Sudeste 0 -- -- 75
2021-02-14 18:00:00 15.2 17 Sudeste 28 Este 0 -- -- 65
2021-02-14 17:00:00 16.4 17 Sudeste 25 Sudeste 0 -- -- 57
2021-02-14 16:00:00 15.8 15 Sudeste 26 Sudeste 0 -- -- 60
2021-02-14 15:00:00 16.5 15 Sudeste 31 Este 0 -- -- 55
2021-02-14 14:00:00 18.4 16 Sudeste 28 Sudeste 0 -- -- 48
2021-02-14 13:00:00 17.6 12 Sudeste 22 Este 0 -- -- 53
2021-02-14 12:00:00 16.5 13 Sudeste 24 Sudeste 0 -- -- 60
2021-02-14 11:00:00 14.9 8 Sudeste 18 Sudeste 0 -- -- 66
2021-02-14 10:00:00 11.9 3 Noroeste 5 Noroeste 0 -- -- 63
2021-02-14 09:00:00 8.3 3 Norte 12 Norte 0 -- -- 74
2021-02-14 08:00:00 7.4 4 Norte 13 Norte 0 -- -- 72
2021-02-14 07:00:00 8.5 11 Norte 15 Norte 0 -- -- 68
2021-02-14 06:00:00 8.5 5 Norte 19 Norte 0 -- -- 69
2021-02-14 05:00:00 9.7 13 Norte 18 Norte 0 -- -- 66
2021-02-14 04:00:00 8.9 6 Norte 12 Norte 0 -- -- 68
2021-02-14 03:00:00 10.4 6 Norte 18 Norte 0 -- -- 63
2021-02-14 02:00:00 11.2 12 Norte 23 Oeste 0 -- -- 63
2021-02-14 01:00:00 12.2 12 Oeste 21 Oeste 0 -- -- 60
2021-02-14 00:00:00 12.7 10 Oeste 19 Noroeste 0 -- -- 63
2021-02-13 23:00:00 10.7 4 Noroeste 10 Nordeste 0 -- -- 82
2021-02-13 22:00:00 11.3 4 Nordeste 8 Noroeste 0 -- -- 72
2021-02-13 21:00:00 13.5 5 Sudeste 9 Sudeste 0 -- -- 66
2021-02-13 20:00:00 15.7 4 Sudeste 17 Sudeste 0 -- -- 58
2021-02-13 19:00:00 17.7 5 Oeste 10 Este 0 -- -- 39
2021-02-13 18:00:00 20 3 Sudeste 17 Oeste 0 -- -- 35
2021-02-13 17:00:00 20.9 6 Sur 15 Noroeste 0 -- -- 33
2021-02-13 16:00:00 21.2 5 Oeste 20 Oeste 0 -- -- 34
2021-02-13 15:00:00 20.6 9 Noroeste 22 Noroeste 0 -- -- 35
2021-02-13 14:00:00 20 12 Noroeste 25 Norte 0 -- -- 36
2021-02-13 13:00:00 19.4 10 Noroeste 31 Noroeste 0 -- -- 40
2021-02-13 08:00:00 14.1 12 Noroeste 35 Noroeste 0 -- -- 52
2021-02-13 07:00:00 14 15 Norte 31 Norte 0 -- -- 54
2021-02-13 06:00:00 14.2 5 Oeste 24 Norte 0 -- -- 52
2021-02-13 05:00:00 14.4 21 Noroeste 42 Noroeste 0 -- -- 52
2021-02-13 04:00:00 14.5 17 Noroeste 39 Noroeste 0 -- -- 54
2021-02-13 03:00:00 13.4 16 Noroeste 29 Noroeste 0 -- -- 59
2021-02-13 02:00:00 13.8 10 Noroeste 30 Noroeste 0 -- -- 60
2021-02-13 01:00:00 14.4 19 Noroeste 43 Noroeste 0 -- -- 57
2021-02-13 00:00:00 15 30 Noroeste 48 Noroeste 0 -- -- 55
2021-02-12 23:00:00 15.1 14 Oeste 38 Noroeste 0 -- -- 54
2021-02-12 22:00:00 16.2 21 Noroeste 50 Noroeste 0 -- -- 50
2021-02-12 21:00:00 16.7 23 Noroeste 43 Noroeste 0 -- -- 48
2021-02-12 20:00:00 17.2 30 Noroeste 44 Noroeste 0 -- -- 45
2021-02-12 19:00:00 17.9 21 Norte 49 Noroeste 0 -- -- 40
2021-02-12 18:00:00 19.7 21 Noroeste 43 Noroeste 0 -- -- 38
2021-02-12 17:00:00 20.5 20 Noroeste 44 Noroeste 0 -- -- 34
2021-02-12 16:00:00 21.4 26 Norte 52 Noroeste 0 -- -- 32
2021-02-12 15:00:00 21.9 33 Noroeste 56 Noroeste 0 -- -- 28
2021-02-12 14:00:00 21.9 38 Noroeste 58 Noroeste 0 -- -- 34
2021-02-12 13:00:00 20.4 27 Noroeste 52 Noroeste 0 -- -- 49
2021-02-12 12:00:00 20.3 22 Noroeste 41 Noroeste 0 -- -- 49
2021-02-12 11:00:00 18.4 12 Noroeste 21 Oeste 0 -- -- 59
2021-02-12 10:00:00 15.5 9 Oeste 23 Noroeste 0 -- -- 72
2021-02-12 09:00:00 14.8 14 Noroeste 26 Noroeste 0 -- -- 73
2021-02-12 08:00:00 14.8 18 Noroeste 32 Noroeste 0 -- -- 74
2021-02-12 07:00:00 14.4 6 Noroeste 21 Norte 0 -- -- 75
2021-02-12 06:00:00 14.6 15 Norte 25 Noroeste 0 -- -- 74
2021-02-12 05:00:00 14.7 19 Noroeste 29 Noroeste 0 -- -- 74
2021-02-12 04:00:00 14.1 5 Noroeste 12 Oeste 0 -- -- 77
2021-02-12 03:00:00 13.9 6 Noroeste 10 Noroeste 0 -- -- 77
2021-02-12 02:00:00 14.1 5 Noroeste 18 Noroeste 0 -- -- 76
2021-02-12 01:00:00 13.6 6 Noroeste 8 Noroeste 0 -- -- 78
2021-02-12 00:00:00 13.7 0 Calma 10 Norte 0 -- -- 76
2021-02-11 23:00:00 13.5 4 Norte 9 Noroeste 0 -- -- 77
2021-02-11 22:00:00 14.2 3 Norte 8 Norte 0 -- -- 73
2021-02-11 21:00:00 15.4 5 Noroeste 9 Noroeste 0 -- -- 69
2021-02-11 20:00:00 17.6 3 Norte 8 Sur 0 -- -- 62
2021-02-11 19:00:00 19.7 4 Sur 10 Sur 0 -- -- 55
2021-02-11 18:00:00 21.6 6 Sur 18 Sudeste 0 -- -- 46
2021-02-11 17:00:00 23.3 5 Sudoeste 13 Sudoeste 0 -- -- 43
2021-02-11 16:00:00 23.3 6 Oeste 15 Sudoeste 0 -- -- 44
2021-02-11 15:00:00 23.1 4 Oeste 14 Oeste 0 -- -- 45
2021-02-11 14:00:00 21.8 7 Oeste 17 Sudoeste 0 -- -- 49
2021-02-11 13:00:00 21.3 7 Oeste 22 Noroeste 0 -- -- 50
2021-02-11 12:00:00 20 9 Oeste 23 Noroeste 0 -- -- 55
2021-02-11 11:00:00 17.8 9 Noroeste 14 Oeste 0 -- -- 61
2021-02-11 10:00:00 14.2 4 Sudoeste 9 Sudoeste 0 -- -- 62
2021-02-11 09:00:00 10.6 3 Oeste 6 Noroeste 0 -- -- 73
2021-02-11 08:00:00 10.3 4 Noroeste 13 Oeste 0 -- -- 68
2021-02-11 07:00:00 11.9 6 Oeste 17 Oeste 0 -- -- 65
2021-02-11 06:00:00 12.9 10 Oeste 20 Oeste 0 -- -- 60
2021-02-11 05:00:00 14 14 Oeste 22 Oeste 0 -- -- 54
2021-02-11 04:00:00 13.8 13 Oeste 23 Oeste 0 -- -- 55
2021-02-11 03:00:00 13.3 0 Calma 15 Norte 0 -- -- 57
2021-02-11 02:00:00 13.7 11 Norte 25 Noroeste 0 -- -- 54
2021-02-11 01:00:00 14.4 18 Noroeste 25 Noroeste 0 -- -- 51
2021-02-11 00:00:00 12.8 12 Noroeste 21 Noroeste 0 -- -- 55
2021-02-10 23:00:00 12 5 Norte 20 Norte 0 -- -- 56
2021-02-10 22:00:00 12.4 11 Norte 15 Norte 0 -- -- 54
2021-02-10 21:00:00 14.3 6 Norte 20 Noroeste 0 -- -- 49
2021-02-10 20:00:00 15.9 13 Noroeste 23 Noroeste 0 -- -- 44
2021-02-10 19:00:00 17.3 7 Noroeste 30 Noroeste 0 -- -- 40
2021-02-10 18:00:00 19.2 19 Noroeste 35 Noroeste 0 -- -- 36
2021-02-10 17:00:00 20.7 17 Noroeste 48 Norte 0 -- -- 34
2021-02-10 16:00:00 21 28 Noroeste 49 Noroeste 0 -- -- 31
2021-02-10 15:00:00 21.1 22 Noroeste 44 Noroeste 0 -- -- 41
2021-02-10 14:00:00 20 28 Noroeste 46 Noroeste 0 -- -- 47
2021-02-10 13:00:00 17.5 25 Noroeste 51 Oeste 0 -- -- 54
2021-02-10 12:00:00 16.9 29 Noroeste 45 Noroeste 0 -- -- 55
2021-02-10 11:00:00 16.8 19 Noroeste 40 Noroeste 0 -- -- 57
2021-02-10 10:00:00 14.7 14 Noroeste 42 Noroeste 0 -- -- 62
2021-02-10 09:00:00 12.3 8 Noroeste 18 Noroeste 0 -- -- 61
2021-02-10 08:00:00 10.8 9 Noroeste 16 Sudoeste 0 -- -- 62
2021-02-10 07:00:00 11.6 5 Noroeste 18 Noroeste 0 -- -- 58
2021-02-10 06:00:00 11.7 12 Noroeste 24 Oeste 0 -- -- 59
2021-02-10 05:00:00 13.4 16 Oeste 32 Oeste 0 -- -- 55
2021-02-10 04:00:00 11.3 10 Noroeste 22 Oeste 0 -- -- 79
2021-02-10 03:00:00 12 10 Oeste 16 Oeste 0 -- -- 78
2021-02-10 02:00:00 12 5 Oeste 13 Noroeste 0 -- -- 77
2021-02-10 01:00:00 12.9 9 Noroeste 18 Norte 0 -- -- 76
2021-02-10 00:00:00 14.4 11 Noroeste 29 Noroeste 0 -- -- 66
2021-02-09 23:00:00 14.9 17 Oeste 28 Oeste 0 -- -- 62
2021-02-09 22:00:00 15.2 15 Oeste 27 Oeste 0 -- -- 60
2021-02-09 21:00:00 15.9 14 Oeste 27 Oeste 0 -- -- 57
2021-02-09 20:00:00 15.2 10 Oeste 19 Oeste 0 -- -- 58
2021-02-09 19:00:00 12.6 3 Norte 7 Sur 0 -- -- 63
2021-02-09 18:00:00 13.9 2 Sur 8 Sudeste 0 -- -- 56
2021-02-09 17:00:00 14.2 4 Sudeste 13 Este 0 -- -- 54
2021-02-09 16:00:00 14.6 7 Sudeste 14 Este 0 -- -- 53
2021-02-09 15:00:00 14.1 7 Sudeste 14 Sudeste 0 -- -- 52
2021-02-09 14:00:00 14.2 7 Sudeste 11 Sudeste 0 -- -- 52
2021-02-09 13:00:00 13.6 2 Nordeste 10 Sur 0 -- -- 56
2021-02-09 12:00:00 12.5 4 Sudeste 10 Sudeste 0 -- -- 61
2021-02-09 11:00:00 11.3 4 Sur 17 Norte 0 -- -- 63
2021-02-09 10:00:00 9.2 5 Noroeste 14 Noroeste 0 -- -- 70
2021-02-09 09:00:00 8.2 10 Noroeste 15 Noroeste 0 -- -- 71
2021-02-09 08:00:00 6.8 5 Oeste 12 Oeste 0 -- -- 76
2021-02-09 07:00:00 6.5 5 Norte 9 Norte 0 -- -- 79
2021-02-09 06:00:00 5.7 6 Norte 10 Norte 0 -- -- 81
2021-02-09 05:00:00 5.8 2 Noroeste 7 Norte 0 -- -- 77
2021-02-09 04:00:00 6.6 5 Norte 9 Sur 0 -- -- 75
2021-02-09 03:00:00 7.2 4 Norte 9 Noroeste 0 -- -- 72
2021-02-09 02:00:00 8.4 3 Noroeste 9 Oeste 0 -- -- 67
2021-02-09 01:00:00 9 0 Calma 9 Sur 0 -- -- 67
2021-02-09 00:00:00 11.5 5 Sudoeste 22 Noroeste 0 -- -- 60
2021-02-08 23:00:00 13 15 Noroeste 40 Noroeste 0 -- -- 57
2021-02-08 22:00:00 13 17 Noroeste 30 Noroeste 0 -- -- 54
2021-02-08 21:00:00 12.9 14 Oeste 27 Noroeste 0 -- -- 51
2021-02-08 20:00:00 13.7 17 Noroeste 31 Noroeste 0 -- -- 48
2021-02-08 19:00:00 14.6 17 Noroeste 46 Norte 0 -- -- 44
2021-02-08 18:00:00 16.2 21 Noroeste 44 Noroeste 0 -- -- 43
2021-02-08 17:00:00 16.7 27 Noroeste 45 Noroeste 0 -- -- 41
2021-02-08 16:00:00 18.5 23 Noroeste 44 Noroeste 0 -- -- 35
2021-02-08 15:00:00 17.3 17 Noroeste 41 Noroeste 0 -- -- 37
2021-02-08 14:00:00 16.2 24 Noroeste 41 Noroeste 0 -- -- 42
2021-02-08 13:00:00 16.4 27 Noroeste 48 Noroeste 0 -- -- 42
2021-02-08 12:00:00 16.5 19 Noroeste 33 Noroeste 0 -- -- 52
2021-02-08 11:00:00 15.1 8 Oeste 17 Sudoeste 0 -- -- 57
2021-02-08 10:00:00 11.2 7 Oeste 15 Sudoeste 0 -- -- 70
2021-02-08 09:00:00 8.8 0 Calma 9 Oeste 0 -- -- 75
2021-02-08 08:00:00 8.5 5 Sudeste 12 Norte 0 -- -- 72
2021-02-08 07:00:00 8.7 3 Sudeste 11 Noroeste 0 -- -- 72
2021-02-08 06:00:00 8.9 3 Este 8 Sudoeste 0 -- -- 70
2021-02-08 05:00:00 9.5 2 Oeste 13 Oeste 0 -- -- 66
2021-02-08 04:00:00 10.6 6 Noroeste 30 Noroeste 0 -- -- 62
2021-02-08 03:00:00 11.3 16 Noroeste 31 Noroeste 0 -- -- 60
2021-02-08 02:00:00 12.1 22 Noroeste 36 Noroeste 0 -- -- 56
2021-02-08 01:00:00 12.9 21 Noroeste 39 Noroeste 0 -- -- 53
2021-02-08 00:00:00 13 13 Noroeste 24 Noroeste 0 -- -- 52
2021-02-07 23:00:00 12.7 13 Oeste 25 Noroeste 0 -- -- 51
2021-02-07 22:00:00 12.5 12 Noroeste 24 Noroeste 0 -- -- 51
2021-02-07 21:00:00 12.9 12 Noroeste 31 Noroeste 0 -- -- 50
2021-02-07 20:00:00 13.6 19 Noroeste 45 Noroeste 0 -- -- 46
2021-02-07 19:00:00 14.2 22 Noroeste 52 Noroeste 0 -- -- 45
2021-02-07 18:00:00 15.7 23 Noroeste 49 Noroeste 0 -- -- 44
2021-02-07 17:00:00 17.1 27 Noroeste 52 Noroeste 0 -- -- 43
2021-02-07 16:00:00 17.4 31 Noroeste 51 Noroeste 0 -- -- 41
2021-02-07 15:00:00 16.3 19 Noroeste 32 Norte 0 -- -- 50
2021-02-07 14:00:00 15.8 19 Noroeste 34 Norte 0 -- -- 54
2021-02-07 13:00:00 16.1 22 Norte 44 Noroeste 0 -- -- 55
2021-02-07 12:00:00 16.3 15 Noroeste 34 Noroeste 0 -- -- 52
2021-02-07 11:00:00 14.1 15 Noroeste 31 Noroeste 0 -- -- 58
2021-02-07 10:00:00 11.5 9 Oeste 17 Oeste 0 -- -- 67
2021-02-07 09:00:00 9.6 10 Noroeste 19 Noroeste 0 -- -- 72
2021-02-07 08:00:00 9.2 8 Noroeste 20 Noroeste 0 -- -- 73
2021-02-07 07:00:00 10.2 11 Noroeste 22 Noroeste 0 -- -- 70
2021-02-07 06:00:00 10.3 12 Noroeste 25 Noroeste 0 -- -- 69
2021-02-07 05:00:00 10.3 14 Noroeste 25 Noroeste 0 -- -- 68
2021-02-07 04:00:00 10.2 12 Noroeste 19 Oeste 0 -- -- 68
2021-02-07 03:00:00 10.5 12 Noroeste 21 Noroeste 0 -- -- 68
2021-02-07 02:00:00 11 9 Noroeste 22 Noroeste 0 -- -- 67
2021-02-07 01:00:00 11.5 13 Noroeste 21 Noroeste 0 -- -- 65
2021-02-07 00:00:00 12 13 Oeste 28 Noroeste 0 -- -- 62
2021-02-06 23:00:00 12.8 19 Noroeste 28 Noroeste 0 -- -- 57
2021-02-06 22:00:00 13.1 10 Noroeste 25 Noroeste 0 -- -- 55
2021-02-06 21:00:00 13.9 11 Noroeste 27 Noroeste 0 -- -- 52
2021-02-06 20:00:00 14.4 17 Norte 24 Noroeste 0 -- -- 48
2021-02-06 19:00:00 15.1 15 Norte 25 Norte 0 -- -- 44
2021-02-06 18:00:00 17.1 19 Norte 28 Noroeste 0 -- -- 43
2021-02-06 17:00:00 18.9 17 Noroeste 24 Noroeste 0 -- -- 43
2021-02-06 16:00:00 20 11 Noroeste 18 Oeste 0 -- -- 43
2021-02-06 15:00:00 20.2 6 Oeste 16 Oeste 0 -- -- 43
2021-02-06 14:00:00 18.9 5 Oeste 13 Oeste 0 -- -- 48
2021-02-06 13:00:00 17.7 5 Oeste 15 Oeste 0 -- -- 54
2021-02-06 12:00:00 16.3 7 Sudoeste 14 Sudoeste 0 -- -- 60
2021-02-06 11:00:00 13.6 3 Oeste 7 Noroeste 0 -- -- 75
2021-02-06 10:00:00 10.7 0 Calma 7 Norte 0 -- -- 88
2021-02-06 09:00:00 8.2 4 Norte 10 Noroeste 0 -- -- 93
2021-02-06 08:00:00 7.7 3 Oeste 6 Noroeste 0 -- -- 91
2021-02-06 07:00:00 8.5 2 Noroeste 7 Noroeste 0 -- -- 88
2021-02-06 06:00:00 9.8 0 Calma 20 Noroeste 0 -- -- 85
2021-02-06 05:00:00 9.6 7 Noroeste 13 Norte 0 -- -- 85
2021-02-06 04:00:00 10.4 4 Oeste 9 Oeste 0 -- -- 82
2021-02-06 03:00:00 11.4 3 Sudoeste 13 Noroeste 0 -- -- 78
2021-02-06 02:00:00 12.8 10 Noroeste 31 Noroeste 0 -- -- 73
2021-02-06 01:00:00 13.5 21 Noroeste 35 Noroeste 0 -- -- 71
2021-02-06 00:00:00 13.6 15 Oeste 26 Oeste 0 -- -- 70
2021-02-05 23:00:00 14.3 7 Este 19 Norte 0 -- -- 67
2021-02-05 22:00:00 13.9 14 Noroeste 23 Noroeste 0 -- -- 72
2021-02-05 21:00:00 12.8 3 Noroeste 9 Norte 0 -- -- 78
2021-02-05 20:00:00 13.6 5 Norte 13 Este 0 -- -- 75
2021-02-05 19:00:00 14.9 5 Este 19 Sudeste 0 -- -- 70
2021-02-05 18:00:00 16.4 12 Sudeste 21 Este 0 -- -- 64
2021-02-05 17:00:00 17.6 10 Este 28 Este 0 -- -- 60
2021-02-05 16:00:00 18 19 Sudeste 28 Sudeste 0 -- -- 57
2021-02-05 15:00:00 18 17 Sudeste 29 Sudeste 0 -- -- 58
2021-02-05 14:00:00 18 17 Sudeste 26 Sudeste 0 -- -- 59
2021-02-05 13:00:00 17.2 14 Este 23 Sudeste 0 -- -- 65
2021-02-05 12:00:00 15 6 Sudeste 13 Este 0 -- -- 76
2021-02-05 11:00:00 13.3 5 Sudeste 12 Sudeste 0 -- -- 86
2021-02-05 10:00:00 10.9 7 Norte 12 Norte 0 -- -- 99
2021-02-05 09:00:00 8 5 Noroeste 9 Noroeste 0 -- -- 99
2021-02-05 08:00:00 6.9 7 Noroeste 9 Noroeste 0 -- -- 97
2021-02-05 07:00:00 7.6 4 Noroeste 8 Noroeste 0 -- -- 96
2021-02-05 06:00:00 8.4 3 Norte 8 Noroeste 0 -- -- 96
2021-02-05 05:00:00 9.1 8 Noroeste 12 Noroeste 0 -- -- 95
2021-02-05 04:00:00 10.1 4 Noroeste 8 Noroeste 0 -- -- 93
2021-02-05 03:00:00 11.5 0 Calma 14 Este 0 -- -- 95
2021-02-05 02:00:00 11.5 9 Este 19 Este 0 -- -- 96
2021-02-05 01:00:00 10.6 10 Este 15 Este 0 -- -- 97
2021-02-05 00:00:00 9.8 0 Calma 5 Noroeste 0 -- -- 93
2021-02-04 23:00:00 10.4 3 Sudoeste 10 Noroeste 0 -- -- 92
2021-02-04 22:00:00 10.9 3 Noroeste 7 Norte 0 -- -- 91
2021-02-04 21:00:00 11.7 3 Nordeste 10 Sudeste 0 -- -- 90
2021-02-04 20:00:00 12.6 6 Sudeste 16 Sudeste 0 -- -- 87
2021-02-04 19:00:00 13.5 9 Este 22 Sudeste 0 -- -- 85
2021-02-04 18:00:00 14.6 12 Sudeste 26 Sudeste 0 -- -- 80
2021-02-04 17:00:00 15.9 15 Sudeste 27 Sudeste 0 -- -- 73
2021-02-04 16:00:00 16.5 18 Este 27 Este 0 -- -- 72
2021-02-04 15:00:00 17.8 16 Este 28 Este 0 -- -- 65
2021-02-04 14:00:00 18.4 15 Este 25 Este 0 -- -- 59
2021-02-04 13:00:00 17.8 15 Sudeste 23 Sudeste 0 -- -- 57
2021-02-04 12:00:00 17.1 7 Sudeste 14 Sudeste 0 -- -- 57
2021-02-04 11:00:00 14.8 6 Sudeste 9 Este 0 -- -- 65
2021-02-04 10:00:00 12.2 0 Calma 5 Norte 0 -- -- 77
2021-02-04 09:00:00 8.8 5 Noroeste 9 Noroeste 0 -- -- 88
2021-02-04 08:00:00 7.6 5 Noroeste 12 Noroeste 0 -- -- 88
2021-02-04 07:00:00 7.4 3 Norte 6 Noroeste 0 -- -- 85
2021-02-04 06:00:00 8.2 5 Noroeste 7 Noroeste 0 -- -- 83
2021-02-04 05:00:00 9.1 4 Norte 8 Noroeste 0 -- -- 81
2021-02-04 04:00:00 9.7 3 Norte 12 Noroeste 0 -- -- 79
2021-02-04 03:00:00 10.2 7 Norte 10 Norte 0 -- -- 76
2021-02-04 02:00:00 10.7 6 Noroeste 12 Norte 0 -- -- 73
2021-02-04 01:00:00 9.8 5 Norte 9 Norte 0 -- -- 78
2021-02-04 00:00:00 10.5 3 Norte 9 Noroeste 0 -- -- 76
2021-02-03 23:00:00 11.4 0 Calma 7 Nordeste 0 -- -- 73
2021-02-03 22:00:00 11.9 3 Nordeste 6 Sudeste 0 -- -- 70
2021-02-03 21:00:00 12.6 7 Norte 9 Noroeste 0 -- -- 69
2021-02-03 20:00:00 13.8 3 Norte 8 Noroeste 0 -- -- 64
2021-02-03 19:00:00 15.8 5 Noroeste 9 Oeste 0 -- -- 57
2021-02-03 18:00:00 17.9 4 Oeste 10 Sudoeste 0 -- -- 51
2021-02-03 17:00:00 19.6 5 Oeste 17 Noroeste 0 -- -- 46
2021-02-03 16:00:00 20.1 10 Noroeste 18 Oeste 0 -- -- 44
2021-02-03 15:00:00 19.6 10 Noroeste 23 Noroeste 0 -- -- 45
2021-02-03 14:00:00 19.7 14 Noroeste 25 Noroeste 0 -- -- 46
2021-02-03 13:00:00 18.5 14 Noroeste 28 Noroeste 0 -- -- 50
2021-02-03 12:00:00 16.8 15 Noroeste 26 Noroeste 0 -- -- 55
2021-02-03 11:00:00 16.5 13 Noroeste 22 Noroeste 0 -- -- 55
2021-02-03 10:00:00 12.8 9 Noroeste 27 Noroeste 0 -- -- 68
2021-02-03 09:00:00 10.6 16 Noroeste 27 Noroeste 0 -- -- 74
2021-02-03 08:00:00 9.7 11 Noroeste 27 Noroeste 0 -- -- 78
2021-02-03 07:00:00 9.8 8 Noroeste 19 Oeste 0 -- -- 80
2021-02-03 06:00:00 9.3 8 Noroeste 18 Noroeste 0 -- -- 84
2021-02-03 05:00:00 10.1 7 Norte 17 Oeste 0 -- -- 82
2021-02-03 04:00:00 9.6 6 Noroeste 16 Noroeste 0 -- -- 83
2021-02-03 03:00:00 10 4 Norte 11 Noroeste 0 -- -- 80
2021-02-03 02:00:00 10.9 2 Norte 14 Norte 0 -- -- 78
2021-02-03 01:00:00 11.3 8 Noroeste 16 Norte 0 -- -- 77
2021-02-03 00:00:00 11.9 8 Norte 13 Norte 0 -- -- 75